x

Halifax Harbour (44258) Wave Buoy

6:00am - Mon 22nd Sep 2014 All times are EDT. -4 hours from GMT.

  • Sig Wave height 16.4ft
  • Peak Period 10s
  • Wind
    34mph, 43mph gusts
  • Air Temp 68°f
  • Sea Pressure 994.8mb
  • Halifax Harbour
  • Halifax Harbour

More Historic Weather Station data

Upgrade to MSW Pro to gain access to the past 30 days of data for over 8000 Wavebouys and Weather Stations around the globe.

Join Pro

Comparision Forecast

View Surf forecast
   
Mon 09/22 6:00am 16.5ft 10s 34 43 mph 994.8mb 68f
5:00am 15ft 8s 40 51 mph 994.8mb 69f
4:00am 14ft 8s 40 49 mph 995.7mb 68f
3:00am  -   -  38
mph
998mb 69f
2:00am 8.5ft 7s 40 51 mph 999.9mb 67f
1:00am 7ft 6s 36 45 mph 1001.9mb 67f
12:00am 6ft 5s 27 31 mph 1004.5mb 66f
Sun 09/21 11:00pm 5ft 5s 20 25 mph 1006.9mb 66f
10:00pm 4.5ft 5s 20 27 mph 1008.2mb 66f
9:00pm 4.5ft 5s 22 25 mph 1009.9mb 66f
8:00pm 4ft 6s 18 20 mph 1011.1mb 66f
7:00pm 3.5ft 6s 22 25 mph 1012.5mb 66f
6:00pm 3.5ft 6s 13 16 mph 1013.5mb 65f
5:00pm 3.5ft 5s 13 16 mph 1014.6mb 65f
4:00pm 3.5ft 6s 13 18 mph 1015mb 65f
3:00pm 3.5ft 6s 13
mph
1016.2mb 65f
2:00pm 3.5ft 5s 11 13 mph 1017.4mb 65f
1:00pm 3.5ft 6s 16 18 mph 1018.1mb 65f
12:00pm 3.5ft 6s 16
mph
1019mb 65f
11:00am 3.5ft 6s 13 18 mph 1019.3mb 65f
10:00am 3.5ft 6s 16 18 mph 1019.5mb 64f
9:00am 3.5ft 6s 16 18 mph 1019.9mb 64f
8:00am 3.5ft 5s 16 18 mph 1019.6mb 64f
7:00am 3.5ft 5s 16 18 mph 1019.6mb 64f
6:00am 3.5ft 5s 16 18 mph 1019.6mb 63f
5:00am 3.5ft 5s 9 11 mph 1020.1mb 62f
4:00am 3.5ft 6s 18 20 mph 1020.1mb 64f
3:00am 3.5ft 5s 18 20 mph 1020.2mb 64f
2:00am 3.5ft 5s 20 25 mph 1020.2mb 64f
1:00am 3.5ft 6s 18 22 mph 1021.3mb 63f
12:00am 3.5ft 6s 20 22 mph 1021.9mb 63f
Sat 09/20 11:00pm 4ft 6s 20 22 mph 1022.2mb 63f
10:00pm 4ft 6s 20 22 mph 1022.6mb 63f
9:00pm 4.5ft 7s 22 27 mph 1022.8mb 62f
8:00pm 5ft 7s 22 27 mph 1023.3mb 62f
7:00pm 5.5ft 6s 25 29 mph 1023.3mb 62f
6:00pm 6ft 7s 27 31 mph 1023.4mb 61f
5:00pm 6ft 7s 27 34 mph 1023.8mb 61f
4:00pm 6ft 6s 27 31 mph 1024.3mb 61f
3:00pm 6ft 7s 27 36 mph 1024.8mb 60f
2:00pm 6ft 6s 27 34 mph 1025.4mb 60f
1:00pm 6ft 6s 29 36 mph 1025.7mb 59f
12:00pm 5ft 5s 27 31 mph 1026.9mb 58f
11:00am 4.5ft 4s 27 36 mph 1027.6mb 58f
10:00am 3.5ft 4s 25 31 mph 1028.3mb 57f
9:00am 2.5ft 4s 22 27 mph 1028.9mb 56f
8:00am 2.5ft 3s 20 25 mph 1029mb 55f
7:00am 1.6ft 10s 18 22 mph 1029.5mb 55f
6:00am 1.3ft 9s 7 11 mph 1029.9mb 52f
5:00am 1.3ft 9s 9 13 mph 1029.8mb 52f
4:00am 1.6ft 10s 11 13 mph 1029.8mb 52f
3:00am 1.6ft 8s 13 16 mph 1029.7mb 52f
2:00am 1.6ft 9s 16 18 mph 1029.8mb 52f
1:00am 1.6ft 9s 16 18 mph 1029.9mb 52f
12:00am 1.6ft 9s 13 18 mph 1029.5mb 52f
Fri 09/19 11:00pm 1.6ft 9s 13 18 mph 1029.5mb 52f
10:00pm 1.6ft 9s 16 20 mph 1029.6mb 51f
9:00pm 1.3ft 9s 13 18 mph 1029.2mb 52f
8:00pm 1.6ft 10s 13 18 mph 1028.1mb 53f
7:00pm 2ft 9s 13 18 mph 1027.1mb 53f
6:00pm 2ft 10s 13 20 mph 1026.6mb 53f
5:00pm 2.5ft 10s 18 22 mph 1025.9mb 54f
4:00pm 2.5ft 3s 20 29 mph 1025.2mb 53f
3:00pm 2.5ft 3s 22 27 mph 1024.4mb 53f
1:00pm 2.5ft 9s 22 29 mph 1023.4mb 51f
12:00pm 2.5ft 10s 20 27 mph 1023.1mb 50f
11:00am 3ft 11s 22 29 mph 1022.9mb 50f
10:00am 2.5ft 3s 20 25 mph 1022.7mb 49f
9:00am 2.5ft 9s 20 27 mph 1022.1mb 49f
8:00am 3ft 11s 22 27 mph 1021.4mb 48f
7:00am  -   -  22
mph
1020.6mb 48f
6:00am 3ft 11s 25
mph
1019.4mb 48f
5:00am 2.5ft 10s 22 27 mph 1018.4mb 49f
4:00am 3ft 11s 20 22 mph 1017.5mb 50f
3:00am  -   -  20
mph
1016.6mb 51f
2:00am 3ft 11s 13 18 mph 1016.3mb 53f
1:00am 3ft 10s 16 20 mph 1015.9mb 53f
12:00am 3ft 11s 20 25 mph 1015.3mb 54f
Thu 09/18 11:00pm 3.5ft 11s 20 27 mph 1015.1mb 56f
9:00pm 3.5ft 11s 18 22 mph 1013.8mb 60f
8:00pm 3.5ft 10s 16 18 mph 1013mb 63f
7:00pm 3.5ft 9s 16 18 mph 1012.4mb 63f
6:00pm 3.5ft 11s 18 20 mph 1012.1mb 63f
5:00pm 3.5ft 10s 16 18 mph 1012.2mb 63f
4:00pm 3.5ft 11s 16 18 mph 1012.2mb 63f
3:00pm 4ft 11s 16 18 mph 1012.5mb 63f
2:00pm 3.5ft 10s 13 16 mph 1012.7mb 63f
1:00pm 4.5ft 13s 13 16 mph 1013mb 62f
12:00pm 4.5ft 12s 13 16 mph 1013.8mb 62f